Time;durP1;ratioP1;P1;durP2;ratioP2;P2;SDS_P1;SDS_P2;PMS_P1;PMS_P2;Temp;Humidity;BMP_temperature;BMP_pressure;BME280_temperature;BME280_humidity;BME280_pressure;Samples;Min_cycle;Max_cycle;Signal;HPM_P1;HPM_P2
2023/11/29 00:01:23;;;;;;;5.18;4.68;;;0.50;99.90;;;;;;5053694;28;20230;-61
2023/11/29 00:03:50;;;;;;;6.47;5.50;;;0.50;99.90;;;;;;5053622;28;20691;-60
2023/11/29 00:06:18;;;;;;;4.72;4.32;;;0.50;99.90;;;;;;5053362;28;20289;-61
2023/11/29 00:08:45;;;;;;;5.28;4.78;;;0.50;99.90;;;;;;5053165;28;20727;-61
2023/11/29 00:11:12;;;;;;;5.70;5.15;;;0.40;99.90;;;;;;5053468;28;20289;-61
2023/11/29 00:13:39;;;;;;;5.35;4.95;;;0.40;99.90;;;;;;5053442;28;20210;-61
2023/11/29 00:16:07;;;;;;;6.55;5.13;;;0.40;99.90;;;;;;5053485;28;20205;-60
2023/11/29 00:18:33;;;;;;;5.00;4.55;;;0.40;99.90;;;;;;5052477;28;20227;-57
2023/11/29 00:21:01;;;;;;;4.63;4.28;;;0.30;99.90;;;;;;5052728;28;20201;-61
2023/11/29 00:23:31;;;;;;;5.90;3.85;;;0.40;99.90;;;;;;5052779;28;20723;-61
2023/11/29 00:25:58;;;;;;;5.22;4.60;;;0.30;99.90;;;;;;5053099;28;20203;-57
2023/11/29 00:28:24;;;;;;;5.15;4.32;;;0.30;99.90;;;;;;5052675;28;20304;-61
2023/11/29 00:30:51;;;;;;;4.35;3.95;;;0.30;99.90;;;;;;5053222;28;20206;-61
2023/11/29 00:33:18;;;;;;;4.35;3.95;;;0.20;99.90;;;;;;5052901;28;20210;-60
2023/11/29 00:35:45;;;;;;;6.53;5.40;;;0.20;99.90;;;;;;5052853;28;20205;-59
2023/11/29 00:38:12;;;;;;;4.40;3.70;;;0.20;99.90;;;;;;5052732;28;20226;-60
2023/11/29 00:40:40;;;;;;;5.13;4.60;;;0.20;99.90;;;;;;5053005;28;20301;-60
2023/11/29 00:43:06;;;;;;;5.80;5.20;;;0.20;99.90;;;;;;5053139;28;20233;-60
2023/11/29 00:45:34;;;;;;;6.35;5.65;;;0.20;99.90;;;;;;5053353;28;20216;-60
2023/11/29 00:48:01;;;;;;;5.72;5.10;;;0.10;99.90;;;;;;5052733;28;20206;-58
2023/11/29 00:50:28;;;;;;;4.65;4.25;;;0.10;99.90;;;;;;5053054;28;20242;-59
2023/11/29 00:52:56;;;;;;;5.45;4.95;;;0.10;99.90;;;;;;5053517;28;20314;-60
2023/11/29 00:55:23;;;;;;;5.03;4.50;;;0.10;99.90;;;;;;5053354;28;20217;-60
2023/11/29 00:57:51;;;;;;;5.88;4.47;;;0.00;99.90;;;;;;5052838;28;20312;-60
2023/11/29 01:00:18;;;;;;;5.93;5.25;;;0.00;99.90;;;;;;5053348;28;20210;-60
2023/11/29 01:02:45;;;;;;;5.70;5.20;;;-0.10;99.90;;;;;;5052908;28;20234;-58
2023/11/29 01:05:12;;;;;;;7.70;5.82;;;-0.10;99.90;;;;;;5053254;28;20207;-60
2023/11/29 01:07:39;;;;;;;7.13;6.43;;;-0.20;99.90;;;;;;5052931;28;20301;-60
2023/11/29 01:10:06;;;;;;;6.00;5.38;;;-0.20;99.90;;;;;;5052828;28;20321;-60
2023/11/29 01:12:33;;;;;;;7.57;5.55;;;-0.20;99.90;;;;;;5052892;28;20622;-60
2023/11/29 01:15:02;;;;;;;7.47;5.95;;;-0.30;99.90;;;;;;5052640;28;20217;-60
2023/11/29 01:17:29;;;;;;;7.85;6.60;;;-0.30;99.90;;;;;;5052442;28;20217;-60
2023/11/29 01:19:56;;;;;;;6.85;5.07;;;-0.30;99.90;;;;;;5052702;28;20226;-60
2023/11/29 01:22:23;;;;;;;6.20;5.60;;;-0.40;99.90;;;;;;5052849;28;20216;-60
2023/11/29 01:24:50;;;;;;;7.07;5.57;;;-0.40;99.90;;;;;;5052542;28;20570;-58
2023/11/29 01:27:17;;;;;;;7.30;6.60;;;-0.40;99.90;;;;;;5051608;28;20211;-59
2023/11/29 01:29:43;;;;;;;5.93;5.30;;;-0.50;99.90;;;;;;5052363;28;20799;-60
2023/11/29 01:32:12;;;;;;;8.75;6.50;;;-0.50;99.90;;;;;;5052640;28;20209;-60
2023/11/29 01:34:41;;;;;;;8.18;6.32;;;-0.50;99.90;;;;;;5052680;28;20214;-60
2023/11/29 01:37:08;;;;;;;8.52;7.00;;;-0.50;99.90;;;;;;5052540;28;20297;-60
2023/11/29 01:39:35;;;;;;;7.28;6.57;;;-0.50;99.90;;;;;;5052495;28;20230;-60
2023/11/29 01:42:01;;;;;;;9.50;7.07;;;-0.60;99.90;;;;;;5052018;28;20298;-59
2023/11/29 01:44:28;;;;;;;10.52;6.45;;;-0.60;99.90;;;;;;5051721;28;20232;-59
2023/11/29 01:46:55;;;;;;;7.53;5.32;;;-0.60;99.90;;;;;;5052030;28;20655;-60
2023/11/29 01:49:24;;;;;;;7.00;6.40;;;-0.60;99.90;;;;;;5052002;28;20652;-58
2023/11/29 01:51:51;;;;;;;5.47;4.97;;;-0.70;99.90;;;;;;5052532;28;20298;-60
2023/11/29 01:54:18;;;;;;;8.52;6.30;;;-0.70;99.90;;;;;;5052506;28;20574;-60
2023/11/29 01:56:45;;;;;;;6.93;6.22;;;-0.80;99.90;;;;;;5051772;28;20591;-60
2023/11/29 01:59:12;;;;;;;8.50;6.85;;;-0.80;99.90;;;;;;5051973;28;20240;-60
2023/11/29 02:01:38;;;;;;;7.55;6.75;;;-0.80;99.90;;;;;;5052476;28;20206;-60
2023/11/29 02:04:06;;;;;;;8.40;6.07;;;-0.80;99.90;;;;;;5052372;28;20210;-60
2023/11/29 02:06:34;;;;;;;7.20;6.18;;;-0.90;99.90;;;;;;5051819;28;20206;-60
2023/11/29 02:09:02;;;;;;;9.43;7.65;;;-0.90;99.90;;;;;;5051887;28;20218;-60
2023/11/29 02:11:32;;;;;;;8.93;7.68;;;-0.90;99.90;;;;;;5052198;28;20759;-60
2023/11/29 02:13:59;;;;;;;7.43;6.13;;;-0.90;99.90;;;;;;5051941;28;20289;-59
2023/11/29 02:16:26;;;;;;;7.97;5.47;;;-0.90;99.90;;;;;;5051634;28;20202;-60
2023/11/29 02:18:53;;;;;;;6.88;5.97;;;-1.00;99.90;;;;;;5051911;28;20226;-60
2023/11/29 02:21:23;;;;;;;10.52;7.63;;;-1.00;99.90;;;;;;5051969;28;20206;-60
2023/11/29 02:23:58;;;;;;;7.32;6.57;;;-1.10;99.90;;;;;;5051900;28;20217;-60
2023/11/29 02:26:26;;;;;;;8.93;6.45;;;-1.10;99.90;;;;;;5051697;28;20304;-59
2023/11/29 02:28:53;;;;;;;8.40;7.00;;;-1.20;99.90;;;;;;5051920;28;20218;-59
2023/11/29 02:31:20;;;;;;;7.03;6.28;;;-1.30;99.90;;;;;;5051174;28;20608;-59
2023/11/29 02:33:46;;;;;;;6.93;5.95;;;-1.30;99.90;;;;;;5051790;28;20213;-59
2023/11/29 02:36:13;;;;;;;9.77;7.30;;;-1.40;99.90;;;;;;5051439;28;20387;-60
2023/11/29 02:38:40;;;;;;;6.70;5.95;;;-1.40;99.90;;;;;;5051118;28;20313;-59
2023/11/29 02:41:07;;;;;;;6.55;5.50;;;-1.40;99.90;;;;;;5051838;28;20961;-58
2023/11/29 02:43:35;;;;;;;6.43;5.72;;;-1.50;99.90;;;;;;5051894;28;20206;-59
2023/11/29 02:46:02;;;;;;;8.23;6.82;;;-1.50;99.90;;;;;;5051390;28;20206;-60
2023/11/29 02:48:29;;;;;;;8.02;5.65;;;-1.60;99.90;;;;;;5051056;28;20728;-59
2023/11/29 02:50:56;;;;;;;6.65;6.00;;;-1.60;99.90;;;;;;5051557;28;20202;-60
2023/11/29 02:53:22;;;;;;;8.45;6.78;;;-1.60;99.90;;;;;;5051571;28;20289;-60
2023/11/29 02:55:49;;;;;;;8.00;6.82;;;-1.70;99.90;;;;;;5051609;28;20210;-58
2023/11/29 02:58:16;;;;;;;9.50;6.95;;;-1.70;99.90;;;;;;5050965;28;20235;-58
2023/11/29 03:00:44;;;;;;;8.30;7.30;;;-1.70;99.90;;;;;;5051855;28;20209;-59
2023/11/29 03:03:11;;;;;;;6.30;5.70;;;-1.80;99.90;;;;;;5051911;28;20217;-60
2023/11/29 03:05:38;;;;;;;7.55;6.47;;;-1.80;99.90;;;;;;5051798;28;20309;-56
2023/11/29 03:08:07;;;;;;;7.63;6.93;;;-1.80;99.90;;;;;;5051645;28;20212;-60
2023/11/29 03:10:34;;;;;;;7.68;5.20;;;-1.90;99.90;;;;;;5051094;28;20755;-60
2023/11/29 03:13:01;;;;;;;8.18;6.82;;;-1.90;99.90;;;;;;5051368;28;20210;-59
2023/11/29 03:15:28;;;;;;;9.63;7.47;;;-1.90;99.90;;;;;;5050686;28;20203;-60
2023/11/29 03:17:56;;;;;;;8.45;7.60;;;-2.00;99.90;;;;;;5050602;28;20217;-60
2023/11/29 03:20:23;;;;;;;8.57;6.95;;;-2.00;99.90;;;;;;5050650;28;20317;-60
2023/11/29 03:22:49;;;;;;;11.60;8.07;;;-2.00;99.90;;;;;;5050888;28;20672;-60
2023/11/29 03:25:16;;;;;;;9.52;7.10;;;-2.10;99.90;;;;;;5051276;28;20237;-60
2023/11/29 03:27:43;;;;;;;7.25;6.53;;;-2.10;99.90;;;;;;5053561;28;20213;-60
2023/11/29 03:30:11;;;;;;;6.35;5.35;;;-2.20;99.90;;;;;;5054859;28;20246;-60
2023/11/29 03:32:38;;;;;;;11.80;6.68;;;-2.20;99.90;;;;;;5054707;28;20580;-60
2023/11/29 03:35:07;;;;;;;8.88;7.90;;;-2.20;99.90;;;;;;5054300;28;20213;-60
2023/11/29 03:37:33;;;;;;;14.75;7.43;;;-2.30;99.90;;;;;;5054110;28;20228;-60
2023/11/29 03:40:00;;;;;;;7.40;6.32;;;-2.30;99.90;;;;;;5054283;28;20252;-60
2023/11/29 03:42:27;;;;;;;10.13;7.22;;;-2.30;99.90;;;;;;5054337;28;20207;-60
2023/11/29 03:44:54;;;;;;;7.05;5.88;;;-2.30;99.90;;;;;;5054246;28;20234;-60
2023/11/29 03:47:21;;;;;;;8.38;6.45;;;-2.30;99.90;;;;;;5053820;28;20294;-60
2023/11/29 03:49:48;;;;;;;8.63;7.22;;;-2.40;99.90;;;;;;5054030;28;20241;-60
2023/11/29 03:52:19;;;;;;;11.32;6.93;;;-2.40;99.90;;;;;;5054329;28;20206;-60
2023/11/29 03:54:46;;;;;;;10.55;7.53;;;-2.40;99.90;;;;;;5054219;28;20664;-60
2023/11/29 03:57:13;;;;;;;7.55;6.55;;;-2.40;99.90;;;;;;5053913;28;20225;-60
2023/11/29 03:59:39;;;;;;;9.95;6.13;;;-2.50;99.90;;;;;;5053871;28;20233;-60
2023/11/29 04:02:06;;;;;;;8.15;7.35;;;-2.50;99.90;;;;;;5053969;28;20593;-60
2023/11/29 04:04:33;;;;;;;8.85;8.05;;;-2.50;99.90;;;;;;5054024;28;20309;-61
2023/11/29 04:07:02;;;;;;;11.90;8.77;;;-2.50;99.90;;;;;;5052572;28;20210;-60
2023/11/29 04:09:30;;;;;;;9.13;7.00;;;-2.50;99.90;;;;;;5053653;28;20594;-61
2023/11/29 04:11:57;;;;;;;9.70;7.35;;;-2.50;99.90;;;;;;5053771;28;20216;-60
2023/11/29 04:14:24;;;;;;;10.25;7.90;;;-2.50;99.90;;;;;;5053663;28;20210;-60
2023/11/29 04:16:52;;;;;;;8.25;7.45;;;-2.60;99.90;;;;;;5053484;28;20668;-59
2023/11/29 04:19:18;;;;;;;8.20;7.40;;;-2.60;99.90;;;;;;5053518;28;20582;-60
2023/11/29 04:21:45;;;;;;;9.57;6.85;;;-2.60;99.90;;;;;;5053658;28;20206;-60
2023/11/29 04:24:12;;;;;;;8.57;7.25;;;-2.60;99.90;;;;;;5053794;28;20305;-60
2023/11/29 04:26:41;;;;;;;10.70;7.25;;;-2.60;99.90;;;;;;5053133;28;20209;-60
2023/11/29 04:29:10;;;;;;;8.82;7.80;;;-2.70;99.90;;;;;;5053735;28;20226;-60
2023/11/29 04:31:37;;;;;;;6.97;6.28;;;-2.70;99.90;;;;;;5053635;28;20207;-60
2023/11/29 04:34:05;;;;;;;7.60;6.80;;;-2.70;99.90;;;;;;5053611;28;20264;-60
2023/11/29 04:36:32;;;;;;;11.60;8.90;;;-2.70;99.90;;;;;;5053344;28;20294;-61
2023/11/29 04:38:59;;;;;;;8.57;6.72;;;-2.70;99.90;;;;;;5052673;28;20226;-60
2023/11/29 04:41:25;;;;;;;8.10;7.28;;;-2.70;99.90;;;;;;5053654;28;20207;-60
2023/11/29 04:43:55;;;;;;;6.85;5.88;;;-2.70;99.90;;;;;;5053651;28;20313;-61
2023/11/29 04:46:21;;;;;;;8.07;7.25;;;-2.70;99.90;;;;;;5053513;28;20206;-59
2023/11/29 04:48:48;;;;;;;9.10;7.07;;;-2.70;99.90;;;;;;5053039;28;20742;-60
2023/11/29 04:51:15;;;;;;;10.77;7.82;;;-2.70;99.90;;;;;;5053507;28;20313;-60
2023/11/29 04:53:42;;;;;;;10.98;8.38;;;-2.60;99.90;;;;;;5053353;28;20297;-60
2023/11/29 04:56:09;;;;;;;9.73;7.88;;;-2.60;99.90;;;;;;5053642;28;20662;-61
2023/11/29 04:58:39;;;;;;;8.38;7.53;;;-2.50;99.90;;;;;;5053381;28;20226;-61
2023/11/29 05:01:10;;;;;;;9.68;7.22;;;-2.50;99.90;;;;;;5053865;28;20260;-61
2023/11/29 05:03:37;;;;;;;11.13;9.05;;;-2.50;99.90;;;;;;5053456;28;20210;-61
2023/11/29 05:06:05;;;;;;;13.02;9.63;;;-2.40;99.90;;;;;;5053615;28;20206;-61
2023/11/29 05:08:33;;;;;;;16.48;9.93;;;-2.40;99.90;;;;;;5053212;28;20643;-61
2023/11/29 05:11:00;;;;;;;12.55;10.00;;;-2.30;99.90;;;;;;5053703;28;20210;-61
2023/11/29 05:13:27;;;;;;;12.80;9.30;;;-2.20;99.90;;;;;;5053732;28;20362;-61
2023/11/29 05:15:54;;;;;;;13.82;11.23;;;-2.10;99.90;;;;;;5053295;28;20202;-61
2023/11/29 05:18:22;;;;;;;18.73;10.40;;;-2.00;99.90;;;;;;5052734;28;20226;-61
2023/11/29 05:20:49;;;;;;;11.20;9.63;;;-2.00;99.90;;;;;;5052877;28;20329;-61
2023/11/29 05:23:16;;;;;;;12.70;11.35;;;-1.90;99.90;;;;;;5053112;28;20212;-61
2023/11/29 05:25:43;;;;;;;15.70;10.85;;;-1.90;99.90;;;;;;5052710;28;20217;-61
2023/11/29 05:28:10;;;;;;;18.30;12.27;;;-1.90;99.90;;;;;;5052348;28;20603;-61
2023/11/29 05:30:37;;;;;;;13.15;11.05;;;-1.80;99.90;;;;;;5052553;28;20202;-61
2023/11/29 05:33:04;;;;;;;14.70;11.10;;;-1.80;99.90;;;;;;5052507;28;20595;-61
2023/11/29 05:35:32;;;;;;;14.52;11.13;;;-1.80;99.90;;;;;;5052237;28;20210;-61
2023/11/29 05:37:59;;;;;;;15.13;10.40;;;-1.70;99.90;;;;;;5052027;28;20206;-61
2023/11/29 05:40:26;;;;;;;15.15;11.18;;;-1.70;99.90;;;;;;5052173;28;20236;-61
2023/11/29 05:42:54;;;;;;;14.00;11.93;;;-1.60;99.90;;;;;;5051898;28;20216;-61
2023/11/29 05:45:21;;;;;;;13.75;10.63;;;-1.60;99.90;;;;;;5052025;28;20684;-61
2023/11/29 05:47:47;;;;;;;14.80;10.55;;;-1.50;99.90;;;;;;5051640;28;20206;-61
2023/11/29 05:50:14;;;;;;;15.32;10.60;;;-1.50;99.90;;;;;;5051308;28;20212;-61
2023/11/29 05:52:42;;;;;;;15.77;12.10;;;-1.40;99.90;;;;;;5052093;28;20688;-61
2023/11/29 05:55:10;;;;;;;14.65;10.90;;;-1.40;99.90;;;;;;5051733;28;20211;-61
2023/11/29 05:57:37;;;;;;;17.48;11.68;;;-1.30;99.90;;;;;;5051487;28;20248;-61
2023/11/29 06:00:09;;;;;;;17.42;11.88;;;-1.30;99.90;;;;;;5051555;28;20234;-61
2023/11/29 06:02:36;;;;;;;17.33;12.80;;;-1.30;99.90;;;;;;5051875;28;20676;-61
2023/11/29 06:05:04;;;;;;;17.00;12.35;;;-1.20;99.90;;;;;;5051944;28;20206;-61
2023/11/29 06:07:32;;;;;;;15.95;11.35;;;-1.20;99.90;;;;;;5051263;28;20714;-61
2023/11/29 06:10:00;;;;;;;13.43;10.52;;;-1.10;99.90;;;;;;5051592;28;20689;-61
2023/11/29 06:12:27;;;;;;;20.33;12.20;;;-1.10;99.90;;;;;;5051752;28;20213;-61
2023/11/29 06:14:54;;;;;;;14.13;11.85;;;-1.10;99.90;;;;;;5051728;28;20217;-61
2023/11/29 06:17:23;;;;;;;19.40;12.77;;;-1.10;99.90;;;;;;5051566;28;20317;-61
2023/11/29 06:19:50;;;;;;;15.15;10.95;;;-1.10;99.90;;;;;;5051572;28;20239;-61
2023/11/29 06:22:17;;;;;;;14.15;11.80;;;-1.00;99.90;;;;;;5051914;28;20213;-61
2023/11/29 06:24:44;;;;;;;18.05;11.10;;;-1.00;99.90;;;;;;5051747;28;20240;-61
2023/11/29 06:27:12;;;;;;;14.35;11.13;;;-1.00;99.90;;;;;;5051556;28;20618;-61
2023/11/29 06:29:39;;;;;;;13.50;11.32;;;-1.00;99.90;;;;;;5050667;28;20230;-61
2023/11/29 06:32:07;;;;;;;15.65;12.70;;;-1.00;99.90;;;;;;5048468;28;20634;-61
2023/11/29 06:34:34;;;;;;;18.55;13.40;;;-0.90;99.90;;;;;;5051670;28;20213;-61
2023/11/29 06:37:00;;;;;;;18.30;11.93;;;-0.90;99.90;;;;;;5051255;28;20199;-62
2023/11/29 06:39:27;;;;;;;22.13;13.30;;;-0.90;99.90;;;;;;5051001;28;20689;-61
2023/11/29 06:41:54;;;;;;;17.35;12.20;;;-0.90;99.90;;;;;;5051683;28;20202;-61
2023/11/29 06:44:23;;;;;;;16.98;12.10;;;-0.90;99.90;;;;;;5051618;28;20217;-61
2023/11/29 06:46:50;;;;;;;19.13;12.77;;;-0.90;99.90;;;;;;5051430;28;20215;-61
2023/11/29 06:49:16;;;;;;;17.70;12.55;;;-0.90;99.90;;;;;;5051937;28;20268;-61
2023/11/29 06:51:43;;;;;;;16.23;12.57;;;-0.90;99.90;;;;;;5052001;28;20672;-61
2023/11/29 06:54:10;;;;;;;19.50;12.23;;;-0.90;99.90;;;;;;5052181;28;20212;-61
2023/11/29 06:56:37;;;;;;;18.02;12.20;;;-0.80;99.90;;;;;;5051850;28;20297;-61
2023/11/29 06:59:04;;;;;;;16.15;12.38;;;-0.80;99.90;;;;;;5052474;28;20252;-61
2023/11/29 07:01:33;;;;;;;15.65;12.25;;;-0.80;99.90;;;;;;5054287;28;20233;-62
2023/11/29 07:04:00;;;;;;;15.15;11.45;;;-0.80;99.90;;;;;;5056136;28;20216;-62
2023/11/29 07:06:27;;;;;;;15.70;11.43;;;-0.80;99.90;;;;;;5056219;28;20210;-61
2023/11/29 07:08:54;;;;;;;15.77;13.25;;;-0.80;99.90;;;;;;5055691;28;20230;-62
2023/11/29 07:11:20;;;;;;;17.20;13.30;;;-0.70;99.90;;;;;;5055752;28;20677;-61
2023/11/29 07:13:47;;;;;;;17.33;12.68;;;-0.70;99.90;;;;;;5056676;28;20305;-62
2023/11/29 07:16:14;;;;;;;16.50;14.30;;;-0.70;99.90;;;;;;5056067;28;20206;-61
2023/11/29 07:18:43;;;;;;;17.00;14.00;;;-0.60;99.90;;;;;;5055853;28;20580;-61
2023/11/29 07:21:10;;;;;;;18.13;13.13;;;-0.60;99.90;;;;;;5055734;28;20238;-62
2023/11/29 07:23:37;;;;;;;17.27;12.52;;;-0.50;99.90;;;;;;5056027;28;20209;-61
2023/11/29 07:26:04;;;;;;;18.92;13.52;;;-0.50;99.90;;;;;;5056031;28;20207;-62
2023/11/29 07:28:31;;;;;;;17.35;12.80;;;-0.50;99.90;;;;;;5055750;28;20245;-61
2023/11/29 07:30:57;;;;;;;24.25;14.20;;;-0.50;99.90;;;;;;5055630;28;20202;-62
2023/11/29 07:33:24;;;;;;;17.60;13.40;;;-0.40;99.90;;;;;;5055666;28;20583;-62
2023/11/29 07:35:52;;;;;;;22.77;14.35;;;-0.40;99.90;;;;;;5055515;28;20297;-62
2023/11/29 07:38:19;;;;;;;18.55;12.18;;;-0.40;99.90;;;;;;5054917;28;20234;-62
2023/11/29 07:40:46;;;;;;;22.27;14.38;;;-0.30;99.90;;;;;;5055313;28;20230;-62
2023/11/29 07:43:13;;;;;;;17.10;12.35;;;-0.30;99.90;;;;;;5055012;28;20203;-61
2023/11/29 07:45:40;;;;;;;20.33;15.85;;;-0.20;99.90;;;;;;5054084;28;20301;-62
2023/11/29 07:48:07;;;;;;;18.15;14.38;;;-0.20;99.90;;;;;;5054733;28;20238;-62
2023/11/29 07:50:34;;;;;;;19.23;13.43;;;-0.10;99.90;;;;;;5055136;28;20245;-62
2023/11/29 07:53:02;;;;;;;15.63;13.13;;;-0.10;99.90;;;;;;5055194;28;20304;-62
2023/11/29 07:55:29;;;;;;;20.50;13.68;;;0.00;99.90;;;;;;5055484;28;20584;-62
2023/11/29 07:57:56;;;;;;;21.83;12.35;;;0.10;99.90;;;;;;5054379;28;20210;-62
2023/11/29 08:00:23;;;;;;;21.20;13.90;;;0.10;99.90;;;;;;5054788;28;20221;-61
2023/11/29 08:02:50;;;;;;;22.27;12.52;;;0.20;99.90;;;;;;5054932;28;20202;-61
2023/11/29 08:05:16;;;;;;;16.55;14.57;;;0.20;99.90;;;;;;5055052;28;20636;-62
2023/11/29 08:07:43;;;;;;;16.30;14.32;;;0.30;99.90;;;;;;5054558;28;20202;-62
2023/11/29 08:10:11;;;;;;;19.95;13.75;;;0.30;99.90;;;;;;5054364;28;20222;-61
2023/11/29 08:12:38;;;;;;;18.83;14.07;;;0.40;99.90;;;;;;5053839;28;20590;-62
2023/11/29 08:15:06;;;;;;;16.42;12.32;;;0.50;99.90;;;;;;5054659;28;20206;-62
2023/11/29 08:17:33;;;;;;;16.85;12.27;;;0.50;99.90;;;;;;5053997;28;20666;-62
2023/11/29 08:20:00;;;;;;;18.00;12.45;;;0.50;99.90;;;;;;5053605;28;20234;-61
2023/11/29 08:22:26;;;;;;;19.05;12.32;;;0.60;99.90;;;;;;5054170;28;20220;-62
2023/11/29 08:24:53;;;;;;;16.35;11.35;;;0.60;99.90;;;;;;5054595;28;20261;-62
2023/11/29 08:27:23;;;;;;;14.23;11.73;;;0.60;99.90;;;;;;5054034;28;20211;-62
2023/11/29 08:29:50;;;;;;;14.30;11.80;;;0.70;99.90;;;;;;5054488;28;20272;-62
2023/11/29 08:32:17;;;;;;;19.23;12.57;;;0.80;99.90;;;;;;5053134;28;20212;-62
2023/11/29 08:34:45;;;;;;;16.98;13.02;;;0.80;99.90;;;;;;5052098;28;20216;-61
2023/11/29 08:37:12;;;;;;;12.70;10.15;;;0.90;99.90;;;;;;5053793;28;20210;-62
2023/11/29 08:39:39;;;;;;;18.27;11.93;;;0.90;99.90;;;;;;5053810;28;20313;-62
2023/11/29 08:42:06;;;;;;;17.77;12.55;;;0.90;99.90;;;;;;5053895;28;20202;-62
2023/11/29 08:44:34;;;;;;;15.10;11.68;;;0.90;99.90;;;;;;5053211;28;20206;-62
2023/11/29 08:47:03;;;;;;;17.73;12.40;;;1.00;99.90;;;;;;5047882;28;20207;-62
2023/11/29 08:49:30;;;;;;;16.55;11.05;;;1.00;99.90;;;;;;5052894;28;20237;-62
2023/11/29 08:51:57;;;;;;;14.70;11.90;;;1.00;99.90;;;;;;5054170;28;20683;-62
2023/11/29 08:54:23;;;;;;;13.93;10.02;;;1.00;99.90;;;;;;5053232;28;20297;-62
2023/11/29 08:56:50;;;;;;;17.35;11.00;;;1.00;99.90;;;;;;5053389;28;20205;-62
2023/11/29 08:59:17;;;;;;;16.52;11.73;;;1.10;99.90;;;;;;5052928;28;20226;-61
2023/11/29 09:01:45;;;;;;;12.82;10.25;;;1.10;99.90;;;;;;5054184;28;20704;-62
2023/11/29 09:04:12;;;;;;;14.18;9.05;;;1.10;99.90;;;;;;5052795;28;20206;-62
2023/11/29 09:06:39;;;;;;;14.95;10.35;;;1.20;99.90;;;;;;5050503;28;20681;-63
2023/11/29 09:09:08;;;;;;;10.30;8.77;;;1.20;99.90;;;;;;5051520;28;20218;-62
2023/11/29 09:11:35;;;;;;;12.90;9.45;;;1.20;99.90;;;;;;5052787;28;20230;-62
2023/11/29 09:14:02;;;;;;;9.73;8.45;;;1.30;99.90;;;;;;5052065;28;20728;-62
2023/11/29 09:16:29;;;;;;;9.75;7.68;;;1.30;99.90;;;;;;5052454;28;20214;-62
2023/11/29 09:18:58;;;;;;;11.25;9.55;;;1.30;99.90;;;;;;5051636;28;20222;-62
2023/11/29 09:21:25;;;;;;;15.35;10.85;;;1.40;99.90;;;;;;5052638;28;20308;-62
2023/11/29 09:23:53;;;;;;;14.43;10.18;;;1.40;99.90;;;;;;5050923;28;20199;-62
2023/11/29 09:26:20;;;;;;;12.10;10.80;;;1.40;99.90;;;;;;5052212;28;20203;-61
2023/11/29 09:28:47;;;;;;;10.15;8.70;;;1.40;99.90;;;;;;5051095;28;20764;-62
2023/11/29 09:31:14;;;;;;;10.07;8.75;;;1.50;99.90;;;;;;5052447;28;20198;-61
2023/11/29 09:33:41;;;;;;;12.63;9.20;;;1.50;99.90;;;;;;5051792;28;20588;-61
2023/11/29 09:36:11;;;;;;;10.55;9.07;;;1.60;99.90;;;;;;5052137;28;20202;-61
2023/11/29 09:38:38;;;;;;;11.18;8.35;;;1.60;99.90;;;;;;5051272;28;20304;-62
2023/11/29 09:41:06;;;;;;;11.23;8.50;;;1.70;99.90;;;;;;5051723;28;20218;-61
2023/11/29 09:43:34;;;;;;;12.50;7.60;;;1.70;99.90;;;;;;5048458;28;20318;-62
2023/11/29 09:46:01;;;;;;;10.60;7.72;;;1.80;99.90;;;;;;5049012;28;20397;-62
2023/11/29 09:48:29;;;;;;;9.15;8.02;;;1.80;99.90;;;;;;5051788;28;20319;-62
2023/11/29 09:50:56;;;;;;;9.65;7.00;;;1.80;99.90;;;;;;5052434;28;20232;-62
2023/11/29 09:53:24;;;;;;;11.88;8.57;;;1.80;99.90;;;;;;5052609;28;20214;-62
2023/11/29 09:55:52;;;;;;;10.90;9.15;;;1.90;99.90;;;;;;5052676;28;20206;-62
2023/11/29 09:58:19;;;;;;;9.27;8.38;;;2.00;99.90;;;;;;5052458;28;20470;-61
2023/11/29 10:00:46;;;;;;;11.40;8.40;;;1.90;99.90;;;;;;5052509;28;20218;-62
2023/11/29 10:03:14;;;;;;;11.75;8.10;;;2.00;99.90;;;;;;5052586;28;20206;-62
2023/11/29 10:05:45;;;;;;;8.05;7.25;;;2.00;99.90;;;;;;5050667;28;20222;-62
2023/11/29 10:08:13;;;;;;;11.23;8.35;;;2.00;99.90;;;;;;5051577;28;20230;-61
2023/11/29 10:10:41;;;;;;;10.07;8.50;;;2.00;99.90;;;;;;5051978;28;20648;-62
2023/11/29 10:13:08;;;;;;;10.65;7.97;;;1.90;99.90;;;;;;5051755;28;20289;-61
2023/11/29 10:15:35;;;;;;;9.65;7.38;;;1.90;99.90;;;;;;5051371;28;20210;-62
2023/11/29 10:18:02;;;;;;;9.15;8.18;;;2.00;99.90;;;;;;5051319;28;20587;-61
2023/11/29 10:20:30;;;;;;;10.02;7.85;;;2.00;99.90;;;;;;5051298;28;20305;-61
2023/11/29 10:22:57;;;;;;;10.40;9.00;;;2.00;99.90;;;;;;5050816;28;20206;-61
2023/11/29 10:25:24;;;;;;;9.55;8.52;;;2.00;99.90;;;;;;5050721;28;20201;-61
2023/11/29 10:27:53;;;;;;;10.18;8.52;;;2.00;99.90;;;;;;5050412;28;20301;-61
2023/11/29 10:30:20;;;;;;;9.48;7.28;;;2.10;99.90;;;;;;5050820;28;20754;-61
2023/11/29 10:32:47;;;;;;;9.30;7.63;;;2.10;99.90;;;;;;5050507;28;20245;-61
2023/11/29 10:35:18;;;;;;;9.43;8.20;;;2.10;99.90;;;;;;5050427;28;20206;-61
2023/11/29 10:37:49;;;;;;;9.57;7.80;;;2.10;99.90;;;;;;5047871;28;20259;-61
2023/11/29 10:40:17;;;;;;;9.55;7.60;;;2.10;99.90;;;;;;5050170;28;20202;-61
2023/11/29 10:42:47;;;;;;;10.68;8.80;;;2.10;99.90;;;;;;5050181;28;20711;-60
2023/11/29 10:45:17;;;;;;;6.47;5.85;;;2.20;99.90;;;;;;5050498;28;20301;-61
2023/11/29 10:47:49;;;;;;;7.20;6.38;;;2.20;99.90;;;;;;5049932;28;20202;-61
2023/11/29 10:50:18;;;;;;;8.88;7.18;;;2.30;99.90;;;;;;5043968;28;20225;-61
2023/11/29 10:52:46;;;;;;;8.13;7.40;;;2.20;99.90;;;;;;5049730;28;20768;-61
2023/11/29 10:55:14;;;;;;;9.68;8.00;;;2.20;99.90;;;;;;5050047;28;20203;-61
2023/11/29 10:57:46;;;;;;;6.72;5.50;;;2.20;99.90;;;;;;5049476;28;20202;-61
2023/11/29 11:00:16;;;;;;;7.57;6.90;;;2.20;99.90;;;;;;5049682;28;20203;-58
2023/11/29 11:02:44;;;;;;;7.75;5.60;;;2.20;99.90;;;;;;5049907;28;20226;-59
2023/11/29 11:05:11;;;;;;;10.15;7.20;;;2.20;99.90;;;;;;5049877;28;20597;-61
2023/11/29 11:07:40;;;;;;;11.05;9.18;;;2.20;99.90;;;;;;5049653;28;20264;-61
2023/11/29 11:10:11;;;;;;;7.57;6.85;;;2.10;99.90;;;;;;5049821;28;20301;-61
2023/11/29 11:12:40;;;;;;;12.18;7.15;;;2.20;99.90;;;;;;5050033;28;20205;-61
2023/11/29 11:15:13;;;;;;;7.78;6.97;;;2.20;99.90;;;;;;5047674;28;20206;-62
2023/11/29 11:17:41;;;;;;;10.27;8.23;;;2.20;99.90;;;;;;5049256;28;20253;-61
2023/11/29 11:20:10;;;;;;;7.93;6.85;;;2.20;99.90;;;;;;5049378;28;20646;-61
2023/11/29 11:22:42;;;;;;;8.48;7.45;;;2.20;99.90;;;;;;5049437;28;20222;-61
2023/11/29 11:25:11;;;;;;;11.02;8.55;;;2.30;99.90;;;;;;5048698;28;20206;-59
2023/11/29 11:27:40;;;;;;;10.20;7.43;;;2.30;99.90;;;;;;5049351;28;20210;-61
2023/11/29 11:30:33;;;;;;;9.85;8.05;;;2.30;99.90;;;;;;5048504;28;20308;-60
2023/11/29 11:33:02;;;;;;;9.43;7.03;;;2.40;99.90;;;;;;5048553;28;20720;-61
2023/11/29 11:35:34;;;;;;;7.53;6.80;;;2.40;99.90;;;;;;5048593;28;20211;-60
2023/11/29 11:38:02;;;;;;;7.38;6.35;;;2.40;99.90;;;;;;5047917;28;20198;-61
2023/11/29 11:40:31;;;;;;;7.90;6.25;;;2.40;99.90;;;;;;5049331;28;20218;-61
2023/11/29 11:42:58;;;;;;;7.32;6.32;;;2.40;99.90;;;;;;5048605;28;20233;-60
2023/11/29 11:45:29;;;;;;;7.07;6.20;;;2.40;99.90;;;;;;5050107;28;20326;-61
2023/11/29 11:47:56;;;;;;;7.75;6.40;;;2.40;99.90;;;;;;5050146;28;20210;-61
2023/11/29 11:50:25;;;;;;;6.97;6.35;;;2.50;99.90;;;;;;5053253;28;20266;-61
2023/11/29 11:52:52;;;;;;;8.75;6.05;;;2.50;99.90;;;;;;5052816;28;20203;-59
2023/11/29 11:55:20;;;;;;;6.90;6.25;;;2.60;99.90;;;;;;5053325;28;20198;-60
2023/11/29 11:57:48;;;;;;;7.10;6.38;;;2.60;99.90;;;;;;5051891;28;20745;-59
2023/11/29 12:00:16;;;;;;;6.38;5.70;;;2.60;99.90;;;;;;5053055;28;20588;-61
2023/11/29 12:02:43;;;;;;;8.77;7.03;;;2.60;99.90;;;;;;5052102;28;20229;-60
2023/11/29 12:05:10;;;;;;;8.82;7.00;;;2.60;99.90;;;;;;5052527;28;20202;-60
2023/11/29 12:07:40;;;;;;;8.60;7.07;;;2.60;99.90;;;;;;5051745;28;20206;-60
2023/11/29 12:10:10;;;;;;;8.60;7.47;;;2.60;99.90;;;;;;5051477;28;20218;-58
2023/11/29 12:12:38;;;;;;;8.45;7.55;;;2.60;99.90;;;;;;5052078;28;20230;-60
2023/11/29 12:15:06;;;;;;;10.05;7.75;;;2.60;99.90;;;;;;5047482;28;20208;-59
2023/11/29 12:17:34;;;;;;;6.57;6.03;;;2.60;99.90;;;;;;5051048;28;20264;-60
2023/11/29 12:20:04;;;;;;;10.50;7.38;;;2.50;99.90;;;;;;5052227;28;20222;-60
2023/11/29 12:22:31;;;;;;;8.40;7.22;;;2.50;99.90;;;;;;5052004;28;20395;-61
2023/11/29 12:24:59;;;;;;;8.07;7.28;;;2.40;99.90;;;;;;5052299;28;20209;-56
2023/11/29 12:27:28;;;;;;;9.90;6.85;;;2.30;99.90;;;;;;5051506;28;20293;-60
2023/11/29 12:29:57;;;;;;;9.55;7.35;;;2.40;99.90;;;;;;5051302;28;20321;-60
2023/11/29 12:32:28;;;;;;;9.73;8.85;;;2.30;99.90;;;;;;5051508;28;20233;-61
2023/11/29 12:34:56;;;;;;;9.50;7.25;;;2.30;99.90;;;;;;5052156;28;20604;-59
2023/11/29 12:37:23;;;;;;;7.30;6.47;;;2.40;99.90;;;;;;5051100;28;20681;-60
2023/11/29 12:39:50;;;;;;;10.63;9.60;;;2.40;99.90;;;;;;5051356;28;20608;-61
2023/11/29 12:42:19;;;;;;;9.65;7.80;;;2.30;99.90;;;;;;5048697;28;20232;-60
2023/11/29 12:44:46;;;;;;;9.57;6.50;;;2.30;99.90;;;;;;5051407;28;20210;-59